sensor_id;sensor_type;location;lat;lon;timestamp;pressure;altitude;pressure_sealevel;temperature;humidity
44872;BME280;30602;51.060;17.226;2022-12-04T00:00:08;102114.05;;;1.45;96.01
44872;BME280;30602;51.060;17.226;2022-12-04T00:03:29;102134.76;;;1.64;95.05
44872;BME280;30602;51.060;17.226;2022-12-04T00:06:54;102138.45;;;1.66;94.81
44872;BME280;30602;51.060;17.226;2022-12-04T00:10:09;102131.10;;;1.64;94.54
44872;BME280;30602;51.060;17.226;2022-12-04T00:13:23;102133.82;;;1.66;94.52
44872;BME280;30602;51.060;17.226;2022-12-04T00:16:40;102140.03;;;1.64;94.39
44872;BME280;30602;51.060;17.226;2022-12-04T00:19:54;102141.81;;;1.61;94.34
44872;BME280;30602;51.060;17.226;2022-12-04T00:24:05;102145.80;;;1.60;94.74
44872;BME280;30602;51.060;17.226;2022-12-04T00:27:17;102133.09;;;1.59;94.79
44872;BME280;30602;51.060;17.226;2022-12-04T00:30:45;102132.52;;;1.62;94.85
44872;BME280;30602;51.060;17.226;2022-12-04T00:34:02;102132.29;;;1.67;94.76
44872;BME280;30602;51.060;17.226;2022-12-04T00:37:21;102121.38;;;1.59;94.57
44872;BME280;30602;51.060;17.226;2022-12-04T00:40:57;102136.35;;;1.70;94.53
44872;BME280;30602;51.060;17.226;2022-12-04T00:44:32;102132.73;;;1.72;94.45
44872;BME280;30602;51.060;17.226;2022-12-04T00:48:02;102130.45;;;1.74;94.48
44872;BME280;30602;51.060;17.226;2022-12-04T00:51:24;102129.39;;;1.86;94.39
44872;BME280;30602;51.060;17.226;2022-12-04T00:54:33;102121.56;;;1.93;93.85
44872;BME280;30602;51.060;17.226;2022-12-04T01:02:23;102123.12;;;1.93;93.36
44872;BME280;30602;51.060;17.226;2022-12-04T01:06:16;102132.02;;;1.93;93.22
44872;BME280;30602;51.060;17.226;2022-12-04T01:09:55;102124.66;;;1.91;93.22
44872;BME280;30602;51.060;17.226;2022-12-04T01:14:18;102118.63;;;1.88;93.23
44872;BME280;30602;51.060;17.226;2022-12-04T01:18:01;102107.97;;;1.82;93.25
44872;BME280;30602;51.060;17.226;2022-12-04T01:21:59;102099.41;;;1.76;93.32
44872;BME280;30602;51.060;17.226;2022-12-04T01:25:38;102077.63;;;1.60;93.50
44872;BME280;30602;51.060;17.226;2022-12-04T01:28:55;102087.84;;;1.59;93.82
44872;BME280;30602;51.060;17.226;2022-12-04T01:32:29;102083.75;;;1.48;93.90
44872;BME280;30602;51.060;17.226;2022-12-04T01:36:05;102092.83;;;1.41;93.98
44872;BME280;30602;51.060;17.226;2022-12-04T01:39:18;102088.48;;;1.30;94.24
44872;BME280;30602;51.060;17.226;2022-12-04T01:43:24;102082.19;;;1.18;94.73
44872;BME280;30602;51.060;17.226;2022-12-04T01:47:01;102085.85;;;1.21;94.34
44872;BME280;30602;51.060;17.226;2022-12-04T01:50:16;102079.91;;;1.17;94.14
44872;BME280;30602;51.060;17.226;2022-12-04T01:54:25;102068.34;;;0.96;94.06
44872;BME280;30602;51.060;17.226;2022-12-04T01:57:52;102071.98;;;0.95;94.43
44872;BME280;30602;51.060;17.226;2022-12-04T02:02:03;102064.63;;;0.79;94.58
44872;BME280;30602;51.060;17.226;2022-12-04T02:05:27;102080.39;;;0.81;94.81
44872;BME280;30602;51.060;17.226;2022-12-04T02:08:37;102060.80;;;0.63;94.57
44872;BME280;30602;51.060;17.226;2022-12-04T02:13:01;102068.92;;;0.58;94.09
44872;BME280;30602;51.060;17.226;2022-12-04T02:35:26;102076.57;;;0.02;94.82
44872;BME280;30602;51.060;17.226;2022-12-04T02:47:08;102065.70;;;0.06;96.08
44872;BME280;30602;51.060;17.226;2022-12-04T02:50:36;102065.52;;;0.12;96.16
44872;BME280;30602;51.060;17.226;2022-12-04T02:58:10;102077.26;;;0.10;95.78
44872;BME280;30602;51.060;17.226;2022-12-04T03:06:09;102079.24;;;0.03;94.84
44872;BME280;30602;51.060;17.226;2022-12-04T03:09:59;102084.11;;;-0.05;95.07
44872;BME280;30602;51.060;17.226;2022-12-04T03:17:22;102072.48;;;-0.13;95.58
44872;BME280;30602;51.060;17.226;2022-12-04T03:25:00;102075.34;;;-0.19;95.82
44872;BME280;30602;51.060;17.226;2022-12-04T03:37:05;102071.74;;;-0.16;96.86
44872;BME280;30602;51.060;17.226;2022-12-04T03:40:21;102073.47;;;-0.06;97.25
44872;BME280;30602;51.060;17.226;2022-12-04T03:43:53;102072.66;;;-0.04;97.36
44872;BME280;30602;51.060;17.226;2022-12-04T03:47:12;102066.65;;;-0.10;97.33
44872;BME280;30602;51.060;17.226;2022-12-04T03:51:25;102070.69;;;-0.12;97.44
44872;BME280;30602;51.060;17.226;2022-12-04T03:55:27;102068.42;;;-0.06;98.05
44872;BME280;30602;51.060;17.226;2022-12-04T03:59:02;102067.93;;;0.01;98.17
44872;BME280;30602;51.060;17.226;2022-12-04T04:02:46;102075.51;;;0.10;98.43
44872;BME280;30602;51.060;17.226;2022-12-04T04:07:00;102041.66;;;0.03;98.83
44872;BME280;30602;51.060;17.226;2022-12-04T04:10:22;102058.94;;;0.24;98.65
44872;BME280;30602;51.060;17.226;2022-12-04T04:13:42;102060.78;;;0.39;98.49
44872;BME280;30602;51.060;17.226;2022-12-04T04:21:42;102066.13;;;0.46;98.29
44872;BME280;30602;51.060;17.226;2022-12-04T04:25:47;102051.11;;;0.42;98.39
44872;BME280;30602;51.060;17.226;2022-12-04T04:29:53;102051.07;;;0.37;98.85
44872;BME280;30602;51.060;17.226;2022-12-04T04:33:30;102037.05;;;0.38;98.49
44872;BME280;30602;51.060;17.226;2022-12-04T04:41:30;102042.98;;;0.28;98.10
44872;BME280;30602;51.060;17.226;2022-12-04T04:45:07;102049.12;;;0.25;98.14
44872;BME280;30602;51.060;17.226;2022-12-04T04:48:33;102049.50;;;0.23;97.91
44872;BME280;30602;51.060;17.226;2022-12-04T04:52:11;102037.34;;;-0.03;97.87
44872;BME280;30602;51.060;17.226;2022-12-04T04:55:43;102032.19;;;0.04;97.86
44872;BME280;30602;51.060;17.226;2022-12-04T04:59:49;102034.80;;;0.16;98.25
44872;BME280;30602;51.060;17.226;2022-12-04T05:03:24;102035.77;;;0.23;97.96
44872;BME280;30602;51.060;17.226;2022-12-04T05:06:59;102036.80;;;0.20;97.91
44872;BME280;30602;51.060;17.226;2022-12-04T05:10:19;102036.13;;;0.18;98.17
44872;BME280;30602;51.060;17.226;2022-12-04T05:14:27;102042.68;;;0.23;98.15
44872;BME280;30602;51.060;17.226;2022-12-04T05:18:10;102035.83;;;0.25;98.41
44872;BME280;30602;51.060;17.226;2022-12-04T05:21:26;102037.45;;;0.24;98.92
44872;BME280;30602;51.060;17.226;2022-12-04T05:25:11;102038.69;;;0.29;98.93
44872;BME280;30602;51.060;17.226;2022-12-04T05:28:28;102037.31;;;0.25;99.03
44872;BME280;30602;51.060;17.226;2022-12-04T05:32:03;102034.99;;;0.23;99.25
44872;BME280;30602;51.060;17.226;2022-12-04T05:35:59;102022.01;;;0.16;99.40
44872;BME280;30602;51.060;17.226;2022-12-04T05:39:38;102047.80;;;0.19;99.55
44872;BME280;30602;51.060;17.226;2022-12-04T05:42:59;102051.76;;;0.27;100.00
44872;BME280;30602;51.060;17.226;2022-12-04T05:47:18;102049.54;;;0.31;100.00
44872;BME280;30602;51.060;17.226;2022-12-04T05:50:27;102049.68;;;0.38;100.00
44872;BME280;30602;51.060;17.226;2022-12-04T05:54:34;102049.48;;;0.37;99.99
44872;BME280;30602;51.060;17.226;2022-12-04T05:57:47;102058.84;;;0.36;99.64
44872;BME280;30602;51.060;17.226;2022-12-04T06:01:19;102048.49;;;0.22;99.60
44872;BME280;30602;51.060;17.226;2022-12-04T06:05:15;102050.20;;;0.26;99.69
44872;BME280;30602;51.060;17.226;2022-12-04T06:08:20;102054.11;;;0.16;99.18
44872;BME280;30602;51.060;17.226;2022-12-04T06:11:41;102052.93;;;0.23;99.28
44872;BME280;30602;51.060;17.226;2022-12-04T06:15:03;102041.85;;;0.17;99.47
44872;BME280;30602;51.060;17.226;2022-12-04T06:18:35;102061.90;;;0.33;99.42
44872;BME280;30602;51.060;17.226;2022-12-04T06:22:05;102068.39;;;0.37;99.24
44872;BME280;30602;51.060;17.226;2022-12-04T06:25:19;102078.83;;;0.42;99.38
44872;BME280;30602;51.060;17.226;2022-12-04T06:28:35;102075.85;;;0.42;99.45
44872;BME280;30602;51.060;17.226;2022-12-04T06:32:29;102080.02;;;0.36;99.77
44872;BME280;30602;51.060;17.226;2022-12-04T06:36:27;102082.30;;;0.40;99.46
44872;BME280;30602;51.060;17.226;2022-12-04T06:40:19;102081.57;;;0.45;99.70
44872;BME280;30602;51.060;17.226;2022-12-04T06:43:39;102085.89;;;0.55;99.85
44872;BME280;30602;51.060;17.226;2022-12-04T06:47:03;102077.95;;;0.46;99.99
44872;BME280;30602;51.060;17.226;2022-12-04T06:51:02;102070.32;;;0.42;100.00
44872;BME280;30602;51.060;17.226;2022-12-04T06:54:54;102089.29;;;0.47;99.95
44872;BME280;30602;51.060;17.226;2022-12-04T06:58:11;102095.06;;;0.50;99.86
44872;BME280;30602;51.060;17.226;2022-12-04T07:01:39;102098.95;;;0.57;99.98
44872;BME280;30602;51.060;17.226;2022-12-04T07:05:04;102093.91;;;0.64;100.00
44872;BME280;30602;51.060;17.226;2022-12-04T07:09:10;102087.59;;;0.67;100.00
44872;BME280;30602;51.060;17.226;2022-12-04T07:12:23;102083.84;;;0.69;100.00
44872;BME280;30602;51.060;17.226;2022-12-04T07:16:01;102087.54;;;0.71;100.00
44872;BME280;30602;51.060;17.226;2022-12-04T07:19:29;102088.06;;;0.83;100.00
44872;BME280;30602;51.060;17.226;2022-12-04T07:26:52;102085.85;;;1.24;100.00
44872;BME280;30602;51.060;17.226;2022-12-04T07:30:28;102077.69;;;1.31;100.00
44872;BME280;30602;51.060;17.226;2022-12-04T07:34:02;102081.49;;;1.36;100.00
44872;BME280;30602;51.060;17.226;2022-12-04T07:37:31;102078.98;;;1.47;100.00
44872;BME280;30602;51.060;17.226;2022-12-04T07:41:29;102070.96;;;1.46;99.89
44872;BME280;30602;51.060;17.226;2022-12-04T07:44:49;102071.97;;;1.44;99.50
44872;BME280;30602;51.060;17.226;2022-12-04T07:48:22;102074.04;;;1.37;99.27
44872;BME280;30602;51.060;17.226;2022-12-04T07:52:11;102067.69;;;1.29;99.47
44872;BME280;30602;51.060;17.226;2022-12-04T07:55:43;102093.48;;;1.43;99.55
44872;BME280;30602;51.060;17.226;2022-12-04T07:59:31;102090.55;;;1.41;99.65
44872;BME280;30602;51.060;17.226;2022-12-04T08:02:50;102095.23;;;1.46;99.72
44872;BME280;30602;51.060;17.226;2022-12-04T08:06:03;102088.67;;;1.50;99.79
44872;BME280;30602;51.060;17.226;2022-12-04T08:09:14;102086.02;;;1.59;99.88
44872;BME280;30602;51.060;17.226;2022-12-04T08:12:25;102086.31;;;1.62;99.92
44872;BME280;30602;51.060;17.226;2022-12-04T08:16:06;102076.36;;;1.58;99.80
44872;BME280;30602;51.060;17.226;2022-12-04T08:19:31;102089.54;;;1.84;99.66
44872;BME280;30602;51.060;17.226;2022-12-04T08:23:07;102090.29;;;1.98;99.25
44872;BME280;30602;51.060;17.226;2022-12-04T08:26:42;102090.34;;;2.08;98.92
44872;BME280;30602;51.060;17.226;2022-12-04T08:30:20;102085.62;;;2.16;98.27
44872;BME280;30602;51.060;17.226;2022-12-04T08:34:04;102085.07;;;2.21;98.03
44872;BME280;30602;51.060;17.226;2022-12-04T08:37:53;102088.40;;;2.28;97.53
44872;BME280;30602;51.060;17.226;2022-12-04T08:41:41;102090.87;;;2.32;97.06
44872;BME280;30602;51.060;17.226;2022-12-04T08:45:28;102087.22;;;2.39;97.64
44872;BME280;30602;51.060;17.226;2022-12-04T08:48:46;102081.08;;;2.47;97.15
44872;BME280;30602;51.060;17.226;2022-12-04T08:52:36;102083.94;;;2.54;97.41
44872;BME280;30602;51.060;17.226;2022-12-04T08:55:55;102066.68;;;2.55;97.21
44872;BME280;30602;51.060;17.226;2022-12-04T08:59:37;102083.70;;;2.75;97.14
44872;BME280;30602;51.060;17.226;2022-12-04T09:02:50;102084.96;;;2.91;97.08
44872;BME280;30602;51.060;17.226;2022-12-04T09:06:30;102073.75;;;3.03;96.74
44872;BME280;30602;51.060;17.226;2022-12-04T09:10:08;102076.12;;;3.23;95.96
44872;BME280;30602;51.060;17.226;2022-12-04T09:17:20;102075.99;;;3.47;94.30
44872;BME280;30602;51.060;17.226;2022-12-04T09:21:07;102074.92;;;3.47;94.22
44872;BME280;30602;51.060;17.226;2022-12-04T09:24:55;102071.46;;;3.53;94.29
44872;BME280;30602;51.060;17.226;2022-12-04T09:28:16;102072.07;;;3.53;93.46
44872;BME280;30602;51.060;17.226;2022-12-04T09:31:53;102071.81;;;3.60;93.08
44872;BME280;30602;51.060;17.226;2022-12-04T09:35:06;102070.22;;;3.61;92.83
44872;BME280;30602;51.060;17.226;2022-12-04T09:38:23;102071.14;;;3.64;92.67
44872;BME280;30602;51.060;17.226;2022-12-04T09:46:08;102076.21;;;3.76;92.20
44872;BME280;30602;51.060;17.226;2022-12-04T09:54:02;102078.54;;;4.01;91.71
44872;BME280;30602;51.060;17.226;2022-12-04T09:57:46;102051.66;;;4.01;91.55
44872;BME280;30602;51.060;17.226;2022-12-04T10:01:26;102057.28;;;4.11;90.95
44872;BME280;30602;51.060;17.226;2022-12-04T10:05:04;102056.30;;;4.10;90.84
44872;BME280;30602;51.060;17.226;2022-12-04T10:08:38;102050.44;;;4.14;90.69
44872;BME280;30602;51.060;17.226;2022-12-04T10:26:34;102038.98;;;4.35;90.17
44872;BME280;30602;51.060;17.226;2022-12-04T10:30:21;102034.02;;;4.31;90.87
44872;BME280;30602;51.060;17.226;2022-12-04T10:37:17;102025.87;;;4.55;89.79
44872;BME280;30602;51.060;17.226;2022-12-04T10:41:01;102026.45;;;4.65;89.88
44872;BME280;30602;51.060;17.226;2022-12-04T10:44:22;102029.55;;;4.65;90.23
44872;BME280;30602;51.060;17.226;2022-12-04T10:48:03;102020.34;;;4.76;89.51
44872;BME280;30602;51.060;17.226;2022-12-04T10:51:46;102016.27;;;4.85;89.20
44872;BME280;30602;51.060;17.226;2022-12-04T10:55:45;102015.85;;;4.88;89.17
44872;BME280;30602;51.060;17.226;2022-12-04T10:59:28;102017.98;;;4.95;88.66
44872;BME280;30602;51.060;17.226;2022-12-04T11:02:39;102018.04;;;5.02;88.12
44872;BME280;30602;51.060;17.226;2022-12-04T11:06:06;102013.00;;;5.08;87.84
44872;BME280;30602;51.060;17.226;2022-12-04T11:09:22;102005.51;;;5.17;87.75
44872;BME280;30602;51.060;17.226;2022-12-04T11:12:38;101996.94;;;5.28;86.85
44872;BME280;30602;51.060;17.226;2022-12-04T11:19:38;101996.23;;;5.49;86.89
44872;BME280;30602;51.060;17.226;2022-12-04T11:23:40;101994.46;;;5.58;86.45
44872;BME280;30602;51.060;17.226;2022-12-04T11:27:29;101990.50;;;5.64;86.17
44872;BME280;30602;51.060;17.226;2022-12-04T11:30:49;101997.70;;;5.74;86.10
44872;BME280;30602;51.060;17.226;2022-12-04T11:34:06;101991.12;;;5.75;85.48
44872;BME280;30602;51.060;17.226;2022-12-04T11:37:35;101980.23;;;5.70;85.31
44872;BME280;30602;51.060;17.226;2022-12-04T11:41:02;101975.73;;;5.82;85.44
44872;BME280;30602;51.060;17.226;2022-12-04T11:45:21;101974.04;;;5.94;85.60
44872;BME280;30602;51.060;17.226;2022-12-04T11:48:41;101969.13;;;6.02;85.18
44872;BME280;30602;51.060;17.226;2022-12-04T11:56:16;101955.39;;;6.09;85.59
44872;BME280;30602;51.060;17.226;2022-12-04T12:03:59;101945.87;;;6.07;85.22
44872;BME280;30602;51.060;17.226;2022-12-04T12:11:17;101940.85;;;6.14;84.45
44872;BME280;30602;51.060;17.226;2022-12-04T12:36:11;101949.29;;;6.09;84.89
44872;BME280;30602;51.060;17.226;2022-12-04T13:02:00;101958.35;;;6.44;83.65
44872;BME280;30602;51.060;17.226;2022-12-04T13:08:58;101953.98;;;6.32;83.46
44872;BME280;30602;51.060;17.226;2022-12-04T13:20:13;101946.07;;;6.12;83.87
44872;BME280;30602;51.060;17.226;2022-12-04T13:42:28;101938.30;;;5.77;84.74
44872;BME280;30602;51.060;17.226;2022-12-04T13:46:31;101939.24;;;5.63;84.90
44872;BME280;30602;51.060;17.226;2022-12-04T13:57:32;101935.77;;;5.37;85.23
44872;BME280;30602;51.060;17.226;2022-12-04T14:02:52;101928.73;;;5.15;85.56
44872;BME280;30602;51.060;17.226;2022-12-04T14:09:50;101950.41;;;5.23;85.58
44872;BME280;30602;51.060;17.226;2022-12-04T14:13:52;101947.16;;;5.06;86.20
44872;BME280;30602;51.060;17.226;2022-12-04T14:17:18;101964.89;;;5.05;86.39
44872;BME280;30602;51.060;17.226;2022-12-04T14:28:40;101964.02;;;4.75;87.70
44872;BME280;30602;51.060;17.226;2022-12-04T14:32:26;101960.29;;;4.66;88.07
44872;BME280;30602;51.060;17.226;2022-12-04T14:36:29;101960.53;;;4.54;88.19
44872;BME280;30602;51.060;17.226;2022-12-04T14:40:42;101972.20;;;4.42;88.63
44872;BME280;30602;51.060;17.226;2022-12-04T14:43:52;101971.70;;;4.33;88.72
44872;BME280;30602;51.060;17.226;2022-12-04T14:58:54;101978.30;;;3.99;89.80
44872;BME280;30602;51.060;17.226;2022-12-04T15:02:33;101979.28;;;3.88;90.46
44872;BME280;30602;51.060;17.226;2022-12-04T15:06:31;101982.90;;;3.81;90.98
44872;BME280;30602;51.060;17.226;2022-12-04T15:09:55;101987.83;;;3.77;91.08
44872;BME280;30602;51.060;17.226;2022-12-04T15:14:03;101989.63;;;3.65;91.80
44872;BME280;30602;51.060;17.226;2022-12-04T15:17:28;101989.29;;;3.63;91.97
44872;BME280;30602;51.060;17.226;2022-12-04T15:24:27;101988.68;;;3.51;92.31
44872;BME280;30602;51.060;17.226;2022-12-04T15:27:38;101986.90;;;3.40;92.50
44872;BME280;30602;51.060;17.226;2022-12-04T15:31:08;101986.88;;;3.33;93.04
44872;BME280;30602;51.060;17.226;2022-12-04T15:38:05;101985.34;;;3.33;92.50
44872;BME280;30602;51.060;17.226;2022-12-04T15:41:42;101990.45;;;3.28;92.87
44872;BME280;30602;51.060;17.226;2022-12-04T15:45:41;101994.92;;;3.21;92.71
44872;BME280;30602;51.060;17.226;2022-12-04T15:49:27;101996.46;;;3.14;93.00
44872;BME280;30602;51.060;17.226;2022-12-04T15:52:48;102003.26;;;3.04;93.08
44872;BME280;30602;51.060;17.226;2022-12-04T15:56:19;102001.45;;;2.96;93.58
44872;BME280;30602;51.060;17.226;2022-12-04T15:59:47;102006.95;;;2.88;93.73
44872;BME280;30602;51.060;17.226;2022-12-04T16:06:46;102005.48;;;2.78;94.03
44872;BME280;30602;51.060;17.226;2022-12-04T16:10:31;101992.34;;;2.63;93.94
44872;BME280;30602;51.060;17.226;2022-12-04T16:17:40;102006.77;;;2.54;94.34
44872;BME280;30602;51.060;17.226;2022-12-04T16:21:18;102014.52;;;2.55;94.64
44872;BME280;30602;51.060;17.226;2022-12-04T16:24:34;102014.02;;;2.48;94.36
44872;BME280;30602;51.060;17.226;2022-12-04T16:28:01;102009.45;;;2.43;94.35
44872;BME280;30602;51.060;17.226;2022-12-04T16:31:41;102009.31;;;2.34;94.35
44872;BME280;30602;51.060;17.226;2022-12-04T16:35:08;102018.66;;;2.28;94.66
44872;BME280;30602;51.060;17.226;2022-12-04T16:38:49;102021.21;;;2.21;94.75
44872;BME280;30602;51.060;17.226;2022-12-04T16:42:22;102019.06;;;2.12;94.65
44872;BME280;30602;51.060;17.226;2022-12-04T16:45:52;102013.97;;;2.07;94.94
44872;BME280;30602;51.060;17.226;2022-12-04T16:49:18;102015.23;;;2.00;95.08
44872;BME280;30602;51.060;17.226;2022-12-04T16:52:55;102014.26;;;1.95;95.41
44872;BME280;30602;51.060;17.226;2022-12-04T16:57:09;102027.23;;;1.98;95.62
44872;BME280;30602;51.060;17.226;2022-12-04T17:00:41;102022.93;;;1.99;95.75
44872;BME280;30602;51.060;17.226;2022-12-04T17:08:15;102026.77;;;2.01;96.14
44872;BME280;30602;51.060;17.226;2022-12-04T17:11:32;102024.20;;;2.15;96.04
44872;BME280;30602;51.060;17.226;2022-12-04T17:15:29;102026.30;;;2.16;95.81
44872;BME280;30602;51.060;17.226;2022-12-04T17:18:56;102023.36;;;2.12;95.75
44872;BME280;30602;51.060;17.226;2022-12-04T17:22:10;102026.38;;;2.06;95.67
44872;BME280;30602;51.060;17.226;2022-12-04T17:25:31;102024.59;;;2.00;95.73
44872;BME280;30602;51.060;17.226;2022-12-04T17:28:50;102029.68;;;1.94;96.24
44872;BME280;30602;51.060;17.226;2022-12-04T17:32:37;102028.53;;;1.92;96.45
44872;BME280;30602;51.060;17.226;2022-12-04T17:36:13;102032.58;;;1.85;96.44
44872;BME280;30602;51.060;17.226;2022-12-04T17:39:51;102033.41;;;1.88;96.55
44872;BME280;30602;51.060;17.226;2022-12-04T17:47:22;102034.34;;;1.88;96.73
44872;BME280;30602;51.060;17.226;2022-12-04T17:51:10;102004.68;;;1.67;96.56
44872;BME280;30602;51.060;17.226;2022-12-04T17:58:36;102039.36;;;1.70;96.75
44872;BME280;30602;51.060;17.226;2022-12-04T18:02:13;102036.36;;;1.64;96.69
44872;BME280;30602;51.060;17.226;2022-12-04T18:05:24;102035.42;;;1.75;96.93
44872;BME280;30602;51.060;17.226;2022-12-04T18:09:05;102036.16;;;1.87;96.51
44872;BME280;30602;51.060;17.226;2022-12-04T18:12:43;102032.77;;;1.87;96.35
44872;BME280;30602;51.060;17.226;2022-12-04T18:16:30;102030.05;;;1.87;96.38
44872;BME280;30602;51.060;17.226;2022-12-04T18:20:05;102033.61;;;1.85;96.60
44872;BME280;30602;51.060;17.226;2022-12-04T18:23:43;102027.42;;;1.82;96.99
44872;BME280;30602;51.060;17.226;2022-12-04T18:26:59;102028.41;;;1.81;96.93
44872;BME280;30602;51.060;17.226;2022-12-04T18:30:12;102028.98;;;1.87;97.14
44872;BME280;30602;51.060;17.226;2022-12-04T18:33:43;102015.91;;;1.78;97.43
44872;BME280;30602;51.060;17.226;2022-12-04T18:36:54;102031.01;;;1.85;97.69
44872;BME280;30602;51.060;17.226;2022-12-04T18:40:26;102024.44;;;1.87;97.99
44872;BME280;30602;51.060;17.226;2022-12-04T18:44:00;102016.40;;;1.97;97.98
44872;BME280;30602;51.060;17.226;2022-12-04T18:47:31;102018.12;;;1.96;98.04
44872;BME280;30602;51.060;17.226;2022-12-04T18:50:49;102021.08;;;2.01;98.07
44872;BME280;30602;51.060;17.226;2022-12-04T18:54:11;102022.11;;;2.04;98.22
44872;BME280;30602;51.060;17.226;2022-12-04T18:57:25;102016.02;;;2.15;98.57
44872;BME280;30602;51.060;17.226;2022-12-04T19:01:11;102012.58;;;2.21;98.18
44872;BME280;30602;51.060;17.226;2022-12-04T19:04:46;102018.11;;;2.22;98.42
44872;BME280;30602;51.060;17.226;2022-12-04T19:08:30;102019.52;;;2.19;98.53
44872;BME280;30602;51.060;17.226;2022-12-04T19:11:44;102017.58;;;2.24;98.64
44872;BME280;30602;51.060;17.226;2022-12-04T19:15:00;102017.69;;;2.22;98.76
44872;BME280;30602;51.060;17.226;2022-12-04T19:18:44;102018.29;;;2.20;99.02
44872;BME280;30602;51.060;17.226;2022-12-04T19:22:21;102023.46;;;2.22;99.12
44872;BME280;30602;51.060;17.226;2022-12-04T19:26:23;102028.49;;;2.21;99.21
44872;BME280;30602;51.060;17.226;2022-12-04T19:30:08;102022.91;;;2.23;99.40
44872;BME280;30602;51.060;17.226;2022-12-04T19:33:34;102017.27;;;2.21;99.53
44872;BME280;30602;51.060;17.226;2022-12-04T19:37:09;102004.94;;;2.03;99.76
44872;BME280;30602;51.060;17.226;2022-12-04T19:44:28;102024.00;;;2.12;100.00
44872;BME280;30602;51.060;17.226;2022-12-04T19:47:52;102028.15;;;2.24;100.00
44872;BME280;30602;51.060;17.226;2022-12-04T19:55:03;102028.58;;;2.25;100.00
44872;BME280;30602;51.060;17.226;2022-12-04T19:58:29;102028.12;;;2.23;100.00
44872;BME280;30602;51.060;17.226;2022-12-04T20:01:49;102025.88;;;2.14;100.00
44872;BME280;30602;51.060;17.226;2022-12-04T20:05:22;102017.74;;;2.05;100.00
44872;BME280;30602;51.060;17.226;2022-12-04T20:10:12;102035.64;;;2.16;100.00
44872;BME280;30602;51.060;17.226;2022-12-04T20:13:47;102042.72;;;2.22;100.00
44872;BME280;30602;51.060;17.226;2022-12-04T20:17:28;102038.46;;;2.21;100.00
44872;BME280;30602;51.060;17.226;2022-12-04T20:21:00;102038.55;;;2.24;100.00
44872;BME280;30602;51.060;17.226;2022-12-04T20:24:45;102035.51;;;2.23;100.00
44872;BME280;30602;51.060;17.226;2022-12-04T20:28:40;102045.73;;;2.21;100.00
44872;BME280;30602;51.060;17.226;2022-12-04T20:32:41;102045.41;;;2.26;100.00
44872;BME280;30602;51.060;17.226;2022-12-04T20:38:13;102039.02;;;2.21;100.00
44872;BME280;30602;51.060;17.226;2022-12-04T20:41:44;102038.00;;;2.45;100.00
44872;BME280;30602;51.060;17.226;2022-12-04T20:44:57;102041.29;;;2.42;100.00
44872;BME280;30602;51.060;17.226;2022-12-04T20:48:31;102025.85;;;2.31;99.90
44872;BME280;30602;51.060;17.226;2022-12-04T20:51:43;102031.37;;;2.33;100.00
44872;BME280;30602;51.060;17.226;2022-12-04T20:55:06;102031.96;;;2.37;100.00
44872;BME280;30602;51.060;17.226;2022-12-04T20:58:56;102042.55;;;2.39;100.00
44872;BME280;30602;51.060;17.226;2022-12-04T21:02:37;102038.92;;;2.40;100.00
44872;BME280;30602;51.060;17.226;2022-12-04T21:05:53;102030.64;;;2.36;100.00
44872;BME280;30602;51.060;17.226;2022-12-04T21:09:26;102032.57;;;2.32;100.00
44872;BME280;30602;51.060;17.226;2022-12-04T21:12:53;102031.58;;;2.36;100.00
44872;BME280;30602;51.060;17.226;2022-12-04T21:17:28;102024.84;;;2.33;100.00
44872;BME280;30602;51.060;17.226;2022-12-04T21:21:01;102024.09;;;2.36;100.00
44872;BME280;30602;51.060;17.226;2022-12-04T21:24:39;102019.29;;;2.38;100.00
44872;BME280;30602;51.060;17.226;2022-12-04T21:28:24;102016.10;;;2.38;100.00
44872;BME280;30602;51.060;17.226;2022-12-04T21:31:52;102019.23;;;2.50;100.00
44872;BME280;30602;51.060;17.226;2022-12-04T21:35:09;102012.97;;;2.54;100.00
44872;BME280;30602;51.060;17.226;2022-12-04T21:38:25;102011.39;;;2.56;100.00
44872;BME280;30602;51.060;17.226;2022-12-04T21:42:29;102010.78;;;2.54;100.00
44872;BME280;30602;51.060;17.226;2022-12-04T21:46:07;102012.05;;;2.48;100.00
44872;BME280;30602;51.060;17.226;2022-12-04T21:49:20;101998.19;;;2.40;100.00
44872;BME280;30602;51.060;17.226;2022-12-04T21:52:46;102007.45;;;2.40;100.00
44872;BME280;30602;51.060;17.226;2022-12-04T21:56:12;102008.16;;;2.31;100.00
44872;BME280;30602;51.060;17.226;2022-12-04T21:59:50;102006.89;;;2.30;100.00
44872;BME280;30602;51.060;17.226;2022-12-04T22:03:07;102005.38;;;2.31;100.00
44872;BME280;30602;51.060;17.226;2022-12-04T22:06:58;102004.09;;;2.29;100.00
44872;BME280;30602;51.060;17.226;2022-12-04T22:10:09;102001.04;;;2.26;100.00
44872;BME280;30602;51.060;17.226;2022-12-04T22:13:24;101998.26;;;2.24;100.00
44872;BME280;30602;51.060;17.226;2022-12-04T22:16:42;102000.99;;;2.23;100.00
44872;BME280;30602;51.060;17.226;2022-12-04T22:20:26;101997.55;;;2.31;100.00
44872;BME280;30602;51.060;17.226;2022-12-04T22:23:56;101995.68;;;2.41;100.00
44872;BME280;30602;51.060;17.226;2022-12-04T22:27:15;101990.27;;;2.35;100.00
44872;BME280;30602;51.060;17.226;2022-12-04T22:30:45;101973.12;;;2.22;100.00
44872;BME280;30602;51.060;17.226;2022-12-04T22:34:14;101985.29;;;2.35;100.00
44872;BME280;30602;51.060;17.226;2022-12-04T22:37:39;101986.04;;;2.37;100.00
44872;BME280;30602;51.060;17.226;2022-12-04T22:42:03;101958.88;;;2.22;100.00
44872;BME280;30602;51.060;17.226;2022-12-04T22:46:00;101980.47;;;2.36;100.00
44872;BME280;30602;51.060;17.226;2022-12-04T22:49:59;101976.55;;;2.34;100.00
44872;BME280;30602;51.060;17.226;2022-12-04T22:53:49;101971.23;;;2.35;100.00